createdAt,value
2019-03-22T00:01:46.141Z,477.10
2019-03-22T00:04:14.688Z,481.07
2019-03-22T00:06:44.059Z,431.53
2019-03-22T00:09:12.428Z,480.17
2019-03-22T00:11:40.603Z,457.47
2019-03-22T00:14:08.987Z,508.93
2019-03-22T00:16:37.266Z,453.87
2019-03-22T00:19:05.854Z,508.80
2019-03-22T00:21:34.224Z,446.53
2019-03-22T00:24:02.491Z,493.60
2019-03-22T00:26:32.546Z,455.63
2019-03-22T00:29:01.173Z,467.07
2019-03-22T00:31:29.539Z,466.67
2019-03-22T00:33:58.139Z,502.37
2019-03-22T00:36:26.446Z,462.90
2019-03-22T00:38:56.077Z,463.77
2019-03-22T00:41:24.448Z,449.20
2019-03-22T00:43:52.980Z,437.60
2019-03-22T00:46:21.528Z,456.60
2019-03-22T00:48:50.067Z,454.60
2019-03-22T00:51:18.529Z,505.60
2019-03-22T00:53:46.890Z,488.97
2019-03-22T00:56:15.237Z,465.23
2019-03-22T00:58:43.760Z,464.07
2019-03-22T01:01:12.092Z,480.70
2019-03-22T01:03:40.483Z,462.37
2019-03-22T01:06:08.723Z,433.27
2019-03-22T01:08:37.127Z,480.83
2019-03-22T01:11:05.446Z,525.07
2019-03-22T01:13:33.636Z,450.83
2019-03-22T01:16:02.080Z,447.00
2019-03-22T01:18:30.574Z,473.50
2019-03-22T01:20:58.795Z,465.43
2019-03-22T01:26:27.181Z,473.37
2019-03-22T01:28:55.505Z,496.17
2019-03-22T01:31:23.902Z,483.87
2019-03-22T01:33:52.221Z,526.97
2019-03-22T01:36:20.667Z,495.30
2019-03-22T01:38:49.313Z,480.07
2019-03-22T01:41:17.717Z,461.80
2019-03-22T01:43:45.948Z,475.83
2019-03-22T01:46:14.138Z,473.63
2019-03-22T01:48:42.670Z,457.00
2019-03-22T01:51:11.092Z,463.03
2019-03-22T01:53:39.563Z,498.73
2019-03-22T01:56:07.980Z,482.90
2019-03-22T01:58:36.495Z,480.67
2019-03-22T02:01:04.946Z,477.33
2019-03-22T02:03:33.270Z,468.03
2019-03-22T02:06:01.595Z,465.43
2019-03-22T02:08:29.865Z,478.13
2019-03-22T02:10:57.969Z,517.30
2019-03-22T02:13:26.253Z,485.33
2019-03-22T02:15:54.432Z,445.63
2019-03-22T02:18:22.689Z,477.27
2019-03-22T02:20:50.911Z,497.43
2019-03-22T02:23:19.248Z,449.07
2019-03-22T02:25:47.426Z,463.03
2019-03-22T02:28:15.593Z,469.97
2019-03-22T02:30:43.923Z,478.87
2019-03-22T02:33:12.073Z,487.67
2019-03-22T02:35:40.335Z,486.47
2019-03-22T02:38:08.713Z,461.53
2019-03-22T02:40:37.047Z,456.13
2019-03-22T02:43:05.496Z,532.00
2019-03-22T02:45:33.745Z,466.87
2019-03-22T02:48:02.255Z,480.37
2019-03-22T02:50:30.529Z,501.73
2019-03-22T02:52:58.773Z,466.53
2019-03-22T02:55:27.575Z,461.17
2019-03-22T02:57:55.845Z,457.90
2019-03-22T03:00:24.108Z,504.53
2019-03-22T03:02:53.228Z,471.90
2019-03-22T03:05:22.507Z,480.33
2019-03-22T03:07:51.113Z,472.27
2019-03-22T03:10:19.408Z,481.10
2019-03-22T03:12:47.969Z,498.83
2019-03-22T03:15:16.993Z,494.27
2019-03-22T03:17:46.462Z,421.20
2019-03-22T03:20:14.980Z,465.53
2019-03-22T03:22:43.321Z,430.80
2019-03-22T03:25:12.934Z,418.13
2019-03-22T03:27:41.312Z,408.47
2019-03-22T03:30:11.984Z,417.87
2019-03-22T03:32:40.393Z,421.70
2019-03-22T03:35:09.415Z,403.70
2019-03-22T03:37:37.673Z,396.47
2019-03-22T03:40:07.668Z,416.27
2019-03-22T03:42:35.984Z,403.70
2019-03-22T03:45:06.613Z,427.20
2019-03-22T03:47:34.765Z,409.30
2019-03-22T03:50:03.786Z,464.27
2019-03-22T03:52:31.931Z,406.47
2019-03-22T03:55:00.127Z,415.13
2019-03-22T03:57:28.345Z,444.77
2019-03-22T03:59:56.866Z,441.03
2019-03-22T04:02:25.067Z,464.43
2019-03-22T04:04:53.238Z,434.90
2019-03-22T04:07:21.405Z,417.93
2019-03-22T04:09:49.707Z,441.13
2019-03-22T04:12:17.851Z,416.33
2019-03-22T04:14:46.042Z,466.33
2019-03-22T04:17:14.279Z,423.77
2019-03-22T04:19:42.466Z,452.53
2019-03-22T04:22:10.683Z,427.70
2019-03-22T04:24:38.935Z,440.27
2019-03-22T04:27:07.248Z,450.57
2019-03-22T04:29:35.424Z,455.17
2019-03-22T04:32:03.769Z,413.00
2019-03-22T04:34:31.951Z,473.33
2019-03-22T04:37:00.211Z,416.50
2019-03-22T04:39:28.489Z,436.73
2019-03-22T04:41:56.828Z,415.80
2019-03-22T04:44:25.044Z,439.20
2019-03-22T04:46:54.306Z,413.00
2019-03-22T04:49:23.644Z,431.70
2019-03-22T04:51:52.681Z,393.00
2019-03-22T04:54:21.843Z,440.13
2019-03-22T04:56:51.666Z,384.83
2019-03-22T04:59:20.341Z,436.20
2019-03-22T05:01:51.600Z,405.60
2019-03-22T05:04:20.471Z,495.67
2019-03-22T05:06:51.117Z,404.17
2019-03-22T05:09:23.023Z,415.57
2019-03-22T05:11:52.651Z,454.93
2019-03-22T05:14:22.989Z,414.47
2019-03-22T05:16:53.491Z,353.30
2019-03-22T05:19:24.725Z,405.43
2019-03-22T05:21:53.375Z,371.40
2019-03-22T05:24:24.516Z,422.17
2019-03-22T05:26:55.404Z,376.70
2019-03-22T05:29:30.447Z,422.80
2019-03-22T05:32:07.067Z,379.30
2019-03-22T05:34:35.335Z,428.30
2019-03-22T05:37:04.301Z,394.53
2019-03-22T05:39:32.654Z,403.73
2019-03-22T05:42:01.198Z,384.20
2019-03-22T05:44:29.332Z,418.57
2019-03-22T05:46:57.984Z,391.43
2019-03-22T05:49:26.668Z,417.53
2019-03-22T05:51:55.072Z,414.43
2019-03-22T05:54:23.271Z,467.13
2019-03-22T05:56:51.666Z,394.17
2019-03-22T05:59:19.871Z,452.27
2019-03-22T06:01:48.468Z,381.67
2019-03-22T06:04:16.757Z,399.03
2019-03-22T06:06:45.149Z,366.70
2019-03-22T06:09:13.740Z,440.77
2019-03-22T06:11:41.906Z,366.53
2019-03-22T06:14:10.087Z,401.27
2019-03-22T06:16:38.240Z,332.67
2019-03-22T06:19:06.529Z,397.73
2019-03-22T06:21:34.789Z,326.93
2019-03-22T06:24:03.411Z,387.43
2019-03-22T06:26:31.582Z,342.70
2019-03-22T06:29:00.052Z,374.60
2019-03-22T06:31:28.319Z,405.00
2019-03-22T06:33:56.642Z,364.33
2019-03-22T06:36:24.844Z,329.43
2019-03-22T06:38:53.251Z,345.87
2019-03-22T06:41:21.525Z,347.00
2019-03-22T06:43:49.913Z,321.40
2019-03-22T06:46:19.337Z,327.80
2019-03-22T06:48:47.503Z,335.57
2019-03-22T06:51:15.795Z,311.50
2019-03-22T06:53:44.083Z,320.40
2019-03-22T06:56:12.334Z,358.73
2019-03-22T06:58:40.533Z,335.80
2019-03-22T07:01:08.754Z,352.27
2019-03-22T07:03:37.024Z,388.50
2019-03-22T07:06:06.410Z,346.07
2019-03-22T07:08:34.695Z,366.30
2019-03-22T07:11:03.248Z,329.67
2019-03-22T07:13:31.649Z,291.70
2019-03-22T07:16:00.017Z,293.33
2019-03-22T07:18:28.338Z,302.00
2019-03-22T07:20:56.710Z,317.73
2019-03-22T07:23:26.177Z,301.70
2019-03-22T07:25:57.132Z,305.37
2019-03-22T07:28:26.118Z,303.20
2019-03-22T07:30:54.372Z,313.27
2019-03-22T07:33:22.903Z,316.03
2019-03-22T07:35:51.327Z,323.73
2019-03-22T07:38:20.481Z,296.60
2019-03-22T07:40:48.703Z,314.27
2019-03-22T07:43:16.891Z,353.97
2019-03-22T07:45:45.190Z,401.20
2019-03-22T07:48:13.441Z,305.87
2019-03-22T07:50:41.765Z,301.33
2019-03-22T07:53:09.916Z,305.03
2019-03-22T07:55:38.378Z,297.97
2019-03-22T07:58:06.532Z,314.53
2019-03-22T08:00:35.154Z,304.17
2019-03-22T08:03:03.777Z,303.77
2019-03-22T08:05:32.024Z,327.90
2019-03-22T08:08:00.275Z,314.53
2019-03-22T08:10:28.722Z,325.27
2019-03-22T08:12:56.979Z,350.00
2019-03-22T08:15:30.642Z,325.10
2019-03-22T08:17:59.585Z,322.57
2019-03-22T08:20:28.654Z,349.47
2019-03-22T08:22:56.930Z,366.70
2019-03-22T08:25:26.181Z,321.53
2019-03-22T08:27:54.551Z,324.50
2019-03-22T08:30:22.783Z,315.37
2019-03-22T08:32:51.087Z,329.63
2019-03-22T08:35:19.406Z,385.13
2019-03-22T08:37:52.370Z,315.10
2019-03-22T08:40:18.052Z,326.50
2019-03-22T08:42:46.257Z,334.10
2019-03-22T08:45:14.772Z,312.17
2019-03-22T08:47:43.469Z,330.63
2019-03-22T08:50:12.522Z,337.57
2019-03-22T08:52:40.984Z,341.00
2019-03-22T08:55:09.417Z,333.27
2019-03-22T08:57:37.578Z,378.17
2019-03-22T09:00:07.272Z,389.50
2019-03-22T09:02:35.805Z,338.87
2019-03-22T09:05:05.152Z,337.47
2019-03-22T09:07:33.372Z,358.47
2019-03-22T09:10:08.101Z,336.67
2019-03-22T09:12:36.698Z,329.60
2019-03-22T09:15:06.014Z,341.17
2019-03-22T09:17:35.606Z,412.73
2019-03-22T09:20:04.927Z,352.97
2019-03-22T09:22:33.416Z,334.77
2019-03-22T09:25:02.039Z,333.90
2019-03-22T09:27:30.378Z,333.27
2019-03-22T09:29:58.877Z,344.57
2019-03-22T09:32:27.205Z,316.97
2019-03-22T09:34:55.647Z,365.40
2019-03-22T09:37:24.184Z,365.63
2019-03-22T09:39:52.673Z,419.33
2019-03-22T09:42:21.247Z,357.77
2019-03-22T09:44:49.846Z,389.93
2019-03-22T09:47:18.081Z,315.07
2019-03-22T09:49:46.496Z,366.77
2019-03-22T09:52:15.075Z,342.00
2019-03-22T09:54:43.383Z,371.97
2019-03-22T09:57:11.769Z,339.60
2019-03-22T09:59:39.968Z,365.13
2019-03-22T10:02:08.435Z,319.30
2019-03-22T10:04:37.023Z,360.17
2019-03-22T10:07:06.791Z,328.47
2019-03-22T10:09:35.117Z,355.63
2019-03-22T10:12:04.243Z,309.23
2019-03-22T10:14:32.609Z,360.37
2019-03-22T10:17:00.980Z,364.27
2019-03-22T10:19:29.566Z,392.30
2019-03-22T10:21:58.019Z,303.97
2019-03-22T10:24:26.425Z,368.03
2019-03-22T10:26:54.981Z,281.77
2019-03-22T10:29:23.382Z,344.30
2019-03-22T10:31:53.352Z,268.60
2019-03-22T10:34:21.607Z,326.80
2019-03-22T10:36:50.332Z,279.23
2019-03-22T10:39:18.660Z,325.30
2019-03-22T10:41:46.988Z,336.97
2019-03-22T10:44:15.297Z,332.67
2019-03-22T10:46:43.573Z,288.40
2019-03-22T10:49:12.001Z,326.07
2019-03-22T10:51:40.260Z,284.53
2019-03-22T10:54:08.907Z,349.53
2019-03-22T10:56:37.185Z,314.60
2019-03-22T10:59:05.913Z,328.17
2019-03-22T11:01:46.856Z,283.27
2019-03-22T11:06:33.801Z,291.13
2019-03-22T11:09:05.662Z,343.20
2019-03-22T11:11:34.267Z,274.93
2019-03-22T11:14:02.563Z,323.07
2019-03-22T11:16:30.973Z,275.57
2019-03-22T11:18:59.241Z,301.40
2019-03-22T11:21:27.718Z,312.07
2019-03-22T11:23:56.078Z,309.80
2019-03-22T11:26:24.380Z,300.10
2019-03-22T11:28:52.900Z,291.33
2019-03-22T11:31:28.326Z,317.30
2019-03-22T11:33:52.151Z,357.40
2019-03-22T11:36:20.666Z,356.73
2019-03-22T11:38:49.081Z,303.73
2019-03-22T11:41:17.624Z,311.77
2019-03-22T11:43:46.166Z,319.37
2019-03-22T11:46:14.640Z,316.63
2019-03-22T11:48:42.993Z,279.30
2019-03-22T11:51:11.543Z,289.70
2019-03-22T11:53:39.825Z,282.20
2019-03-22T11:56:09.477Z,295.57
2019-03-22T11:58:38.947Z,315.53
2019-03-22T12:01:07.381Z,292.27
2019-03-22T12:03:35.762Z,301.60
2019-03-22T12:06:04.798Z,273.70
2019-03-22T12:08:33.165Z,334.40
2019-03-22T12:11:01.404Z,366.80
2019-03-22T12:13:29.661Z,327.47
2019-03-22T12:15:58.597Z,302.67
2019-03-22T12:18:27.618Z,312.93
2019-03-22T12:20:56.645Z,291.10
2019-03-22T12:23:25.127Z,320.93
2019-03-22T12:25:54.290Z,279.70
2019-03-22T12:28:22.637Z,296.97
2019-03-22T12:30:51.114Z,309.97
2019-03-22T12:33:20.090Z,292.27
2019-03-22T12:35:48.281Z,292.90
2019-03-22T12:38:16.661Z,317.53
2019-03-22T12:40:44.907Z,260.20
2019-03-22T12:43:13.176Z,302.40
2019-03-22T12:45:41.538Z,357.77
2019-03-22T12:48:09.835Z,374.07
2019-03-22T12:50:38.107Z,318.53
2019-03-22T12:53:06.698Z,296.53
2019-03-22T12:55:35.041Z,308.77
2019-03-22T12:58:04.380Z,311.73
2019-03-22T13:00:32.645Z,285.70
2019-03-22T13:03:01.001Z,338.97
2019-03-22T13:05:29.546Z,282.70
2019-03-22T13:07:57.998Z,332.03
2019-03-22T13:10:26.561Z,295.67
2019-03-22T13:12:55.386Z,325.07
2019-03-22T13:15:23.884Z,352.03
2019-03-22T13:17:52.358Z,315.03
2019-03-22T13:20:20.941Z,371.47
2019-03-22T13:22:50.147Z,287.90
2019-03-22T13:25:21.125Z,365.17
2019-03-22T13:27:49.089Z,355.43
2019-03-22T13:30:34.938Z,284.33
2019-03-22T13:33:03.691Z,352.37
2019-03-22T13:35:31.950Z,308.27
2019-03-22T13:38:01.291Z,312.97
2019-03-22T13:40:29.692Z,289.33
2019-03-22T13:42:58.044Z,320.17
2019-03-22T13:45:26.564Z,322.33
2019-03-22T13:47:54.701Z,290.20
2019-03-22T13:50:23.045Z,287.03
2019-03-22T13:52:51.313Z,282.23
2019-03-22T13:55:19.451Z,294.23
2019-03-22T13:57:47.710Z,301.87
2019-03-22T14:00:16.393Z,300.97
2019-03-22T14:02:44.651Z,303.60
2019-03-22T14:05:12.942Z,316.73
2019-03-22T14:07:41.527Z,329.87
2019-03-22T14:10:17.526Z,362.07
2019-03-22T14:12:45.697Z,304.10
2019-03-22T14:15:14.088Z,337.83
2019-03-22T14:17:42.375Z,326.47
2019-03-22T14:20:11.695Z,326.80
2019-03-22T14:22:41.111Z,316.47
2019-03-22T14:25:09.562Z,310.67
2019-03-22T14:27:38.075Z,294.30
2019-03-22T14:30:06.924Z,330.23
2019-03-22T14:32:35.377Z,300.67
2019-03-22T14:35:05.733Z,349.30
2019-03-22T14:37:33.981Z,281.67
2019-03-22T14:40:02.236Z,302.83
2019-03-22T14:42:30.846Z,351.63
2019-03-22T14:44:59.238Z,391.53
2019-03-22T14:47:27.705Z,314.67
2019-03-22T14:49:55.840Z,338.90
2019-03-22T14:52:25.151Z,327.67
2019-03-22T14:54:53.523Z,351.13
2019-03-22T14:57:21.848Z,329.73
2019-03-22T14:59:58.548Z,336.37
2019-03-22T15:02:20.210Z,341.70
2019-03-22T15:04:48.967Z,333.50
2019-03-22T15:07:20.094Z,319.80
2019-03-22T15:09:47.504Z,363.03
2019-03-22T15:12:15.678Z,309.00
2019-03-22T15:14:51.909Z,382.63
2019-03-22T15:17:29.401Z,323.50
2019-03-22T15:20:16.101Z,377.20
2019-03-22T15:23:03.961Z,332.87
2019-03-22T15:25:53.308Z,336.13
2019-03-22T15:28:40.366Z,386.00
2019-03-22T15:31:27.344Z,360.70
2019-03-22T15:34:31.202Z,348.83
2019-03-22T15:37:18.351Z,344.67
2019-03-22T15:40:15.547Z,371.13
2019-03-22T15:42:45.751Z,301.93
2019-03-22T15:45:14.691Z,344.00
2019-03-22T15:47:43.179Z,329.37
2019-03-22T15:50:14.681Z,344.80
2019-03-22T15:52:42.975Z,309.33
2019-03-22T15:55:11.567Z,347.90
2019-03-22T15:57:39.971Z,319.63
2019-03-22T16:00:12.308Z,325.77
2019-03-22T16:02:43.593Z,319.23
2019-03-22T16:05:13.170Z,352.50
2019-03-22T16:07:42.301Z,319.60
2019-03-22T16:10:11.645Z,332.53
2019-03-22T16:12:43.824Z,321.57
2019-03-22T16:15:13.091Z,379.23
2019-03-22T16:17:46.029Z,354.20
2019-03-22T16:20:15.586Z,326.07
2019-03-22T16:22:44.131Z,355.37
2019-03-22T16:25:13.405Z,331.67
2019-03-22T16:27:42.645Z,361.70
2019-03-22T16:30:11.654Z,325.37
2019-03-22T16:32:42.085Z,329.97
2019-03-22T16:35:11.247Z,327.60
2019-03-22T16:37:39.478Z,296.83
2019-03-22T16:40:09.411Z,328.63
2019-03-22T16:42:38.534Z,352.93
2019-03-22T16:45:08.800Z,337.87
2019-03-22T16:47:37.171Z,307.07
2019-03-22T16:50:22.070Z,355.27
2019-03-22T16:52:50.340Z,314.40
2019-03-22T16:55:18.851Z,331.90
2019-03-22T16:58:24.591Z,342.63
2019-03-22T17:00:52.957Z,313.47
2019-03-22T17:03:21.442Z,328.60
2019-03-22T17:05:49.800Z,333.60
2019-03-22T17:08:18.129Z,405.30
2019-03-22T17:10:46.648Z,324.63
2019-03-22T17:13:15.439Z,337.87
2019-03-22T17:15:43.644Z,341.27
2019-03-22T17:18:12.103Z,317.00
2019-03-22T17:20:40.529Z,347.93
2019-03-22T17:23:08.817Z,321.13
2019-03-22T17:25:37.362Z,328.30
2019-03-22T17:28:05.650Z,272.60
2019-03-22T17:30:34.198Z,300.57
2019-03-22T17:33:02.759Z,312.70
2019-03-22T17:35:31.037Z,297.07
2019-03-22T17:37:59.202Z,332.07
2019-03-22T17:40:27.484Z,319.17
2019-03-22T17:42:55.843Z,333.33
2019-03-22T17:45:24.001Z,400.00
2019-03-22T17:47:53.071Z,322.40
2019-03-22T17:50:25.385Z,312.17
2019-03-22T17:52:53.838Z,346.53
2019-03-22T17:55:23.211Z,341.60
2019-03-22T17:57:51.441Z,350.23
2019-03-22T18:00:23.078Z,351.73
2019-03-22T18:02:52.287Z,366.07
2019-03-22T18:05:22.537Z,351.70
2019-03-22T18:07:51.225Z,339.97
2019-03-22T18:10:20.089Z,313.93
2019-03-22T18:12:48.526Z,347.37
2019-03-22T18:15:17.186Z,356.60
2019-03-22T18:17:45.687Z,381.53
2019-03-22T18:20:14.612Z,336.13
2019-03-22T18:22:45.910Z,322.90
2019-03-22T18:25:15.774Z,317.13
2019-03-22T18:27:44.589Z,380.13
2019-03-22T18:30:14.098Z,292.00
2019-03-22T18:32:42.782Z,288.33
2019-03-22T18:35:14.809Z,382.53
2019-03-22T18:37:43.430Z,298.10
2019-03-22T18:40:12.388Z,299.80
2019-03-22T18:42:43.551Z,324.40
2019-03-22T18:45:15.084Z,337.43
2019-03-22T18:47:44.145Z,330.40
2019-03-22T18:50:12.918Z,308.93
2019-03-22T18:52:42.482Z,338.30
2019-03-22T18:55:11.118Z,328.87
2019-03-22T18:57:40.431Z,323.20
2019-03-22T19:00:09.222Z,348.57
2019-03-22T19:02:38.722Z,303.63
2019-03-22T19:05:08.375Z,378.67
2019-03-22T19:07:36.812Z,304.60
2019-03-22T19:10:10.187Z,298.53
2019-03-22T19:12:41.611Z,366.47
2019-03-22T19:15:10.785Z,334.33
2019-03-22T19:17:39.191Z,381.13
2019-03-22T19:20:08.635Z,290.37
2019-03-22T19:22:38.064Z,322.07
2019-03-22T19:25:06.966Z,311.13
2019-03-22T19:27:35.481Z,312.50
2019-03-22T19:30:06.468Z,349.67
2019-03-22T19:32:35.281Z,303.97
2019-03-22T19:35:04.992Z,329.50
2019-03-22T19:37:44.702Z,322.50
2019-03-22T19:40:11.465Z,331.93
2019-03-22T19:42:40.734Z,305.90
2019-03-22T19:45:09.898Z,324.57
2019-03-22T19:47:39.061Z,349.63
2019-03-22T19:50:07.763Z,283.13
2019-03-22T19:52:37.060Z,300.33
2019-03-22T19:55:06.980Z,307.77
2019-03-22T19:57:35.912Z,311.50
2019-03-22T20:00:06.170Z,335.17
2019-03-22T20:02:35.888Z,285.17
2019-03-22T20:05:05.631Z,328.93
2019-03-22T20:07:34.193Z,289.87
2019-03-22T20:10:02.616Z,314.93
2019-03-22T20:12:31.544Z,302.65
2019-03-22T20:14:59.948Z,290.30
2019-03-22T20:17:28.205Z,285.07
2019-03-22T20:19:56.639Z,334.87
2019-03-22T20:22:25.802Z,277.80
2019-03-22T20:24:54.183Z,367.43
2019-03-22T20:27:22.972Z,308.93
2019-03-22T20:29:51.385Z,365.37
2019-03-22T20:32:20.486Z,294.57
2019-03-22T20:34:48.590Z,340.73
2019-03-22T20:37:16.912Z,286.80
2019-03-22T20:39:45.577Z,342.90
2019-03-22T20:42:14.021Z,327.63
2019-03-22T20:44:42.405Z,333.50
2019-03-22T20:47:10.694Z,319.27
2019-03-22T20:49:38.996Z,362.80
2019-03-22T20:52:07.216Z,289.10
2019-03-22T20:54:35.502Z,344.03
2019-03-22T20:57:04.843Z,370.23
2019-03-22T20:59:33.301Z,353.40
2019-03-22T21:02:01.676Z,342.10
2019-03-22T21:04:29.855Z,394.13
2019-03-22T21:06:59.828Z,335.60
2019-03-22T21:09:29.148Z,383.63
2019-03-22T21:11:57.383Z,302.57
2019-03-22T21:14:26.265Z,356.37
2019-03-22T21:16:54.476Z,282.13
2019-03-22T21:19:22.805Z,361.53
2019-03-22T21:21:51.955Z,312.63
2019-03-22T21:24:20.331Z,356.47
2019-03-22T21:26:48.831Z,331.03
2019-03-22T21:29:17.145Z,376.83
2019-03-22T21:31:45.449Z,332.93
2019-03-22T21:34:13.760Z,374.50
2019-03-22T21:36:42.167Z,333.03
2019-03-22T21:39:10.484Z,394.07
2019-03-22T21:41:39.303Z,372.60
2019-03-22T21:44:07.888Z,417.60
2019-03-22T21:46:36.131Z,358.97
2019-03-22T21:49:04.890Z,368.63
2019-03-22T21:51:33.085Z,353.97
2019-03-22T21:54:01.473Z,359.10
2019-03-22T21:56:29.890Z,360.87
2019-03-22T21:58:58.318Z,376.53
2019-03-22T22:01:26.902Z,360.00
2019-03-22T22:03:55.113Z,359.83
2019-03-22T22:06:23.424Z,365.73
2019-03-22T22:08:51.600Z,352.67
2019-03-22T22:11:19.979Z,339.40
2019-03-22T22:13:48.393Z,361.30
2019-03-22T22:16:16.564Z,397.00
2019-03-22T22:18:45.356Z,382.97
2019-03-22T22:21:14.549Z,383.10
2019-03-22T22:23:42.837Z,341.73
2019-03-22T22:26:11.932Z,354.83
2019-03-22T22:28:40.369Z,358.13
2019-03-22T22:31:08.632Z,336.90
2019-03-22T22:33:37.844Z,349.30
2019-03-22T22:36:06.946Z,320.50
2019-03-22T22:38:36.196Z,355.83
2019-03-22T22:41:05.388Z,313.77
2019-03-22T22:43:34.004Z,366.80
2019-03-22T22:46:02.165Z,319.50
2019-03-22T22:48:30.446Z,389.97
2019-03-22T22:50:58.616Z,348.73
2019-03-22T22:53:26.877Z,388.43
2019-03-22T22:55:55.122Z,368.97
2019-03-22T22:58:23.524Z,366.63
2019-03-22T23:00:51.768Z,342.00
2019-03-22T23:03:22.073Z,398.10
2019-03-22T23:05:50.622Z,347.83
2019-03-22T23:08:19.122Z,370.37
2019-03-22T23:10:47.610Z,344.73
2019-03-22T23:13:15.877Z,360.43
2019-03-22T23:15:44.030Z,356.07
2019-03-22T23:18:12.401Z,371.63
2019-03-22T23:20:41.799Z,387.67
2019-03-22T23:23:09.939Z,350.63
2019-03-22T23:25:38.155Z,384.97
2019-03-22T23:28:06.387Z,375.63
2019-03-22T23:30:34.803Z,426.83
2019-03-22T23:33:03.185Z,378.03
2019-03-22T23:35:31.836Z,362.20
2019-03-22T23:38:02.877Z,371.80
2019-03-22T23:40:31.369Z,420.10
2019-03-22T23:42:59.667Z,372.67
2019-03-22T23:45:27.987Z,381.37
2019-03-22T23:47:56.147Z,386.23
2019-03-22T23:50:24.425Z,364.43
2019-03-22T23:52:52.819Z,395.57
2019-03-22T23:55:21.182Z,391.53
2019-03-22T23:57:49.328Z,369.37
